createdAt,value
2017-06-25T00:02:25.891Z,5.60
2017-06-25T00:04:54.160Z,6.40
2017-06-25T00:07:22.468Z,5.97
2017-06-25T00:09:51.519Z,5.35
2017-06-25T00:12:19.795Z,4.95
2017-06-25T00:14:48.081Z,5.70
2017-06-25T00:17:16.356Z,4.90
2017-06-25T00:19:44.632Z,6.20
2017-06-25T00:22:12.947Z,5.28
2017-06-25T00:24:41.984Z,5.72
2017-06-25T00:27:10.248Z,5.28
2017-06-25T00:29:38.560Z,7.32
2017-06-25T00:32:06.832Z,5.05
2017-06-25T00:34:35.103Z,5.22
2017-06-25T00:37:03.423Z,5.10
2017-06-25T00:39:31.695Z,4.62
2017-06-25T00:42:00.731Z,7.30
2017-06-25T00:44:29.147Z,6.00
2017-06-25T00:46:58.192Z,5.85
2017-06-25T00:49:26.464Z,6.72
2017-06-25T00:51:54.783Z,5.15
2017-06-25T00:54:39.863Z,6.68
2017-06-25T00:57:08.231Z,5.60
2017-06-25T00:59:36.508Z,10.82
2017-06-25T01:02:04.781Z,6.45
2017-06-25T01:04:33.867Z,5.30
2017-06-25T01:07:02.904Z,5.62
2017-06-25T01:09:31.180Z,6.68
2017-06-25T01:11:59.483Z,6.85
2017-06-25T01:14:27.763Z,6.80
2017-06-25T01:16:56.040Z,6.32
2017-06-25T01:19:24.343Z,5.87
2017-06-25T01:21:53.379Z,7.35
2017-06-25T01:24:21.660Z,6.05
2017-06-25T01:26:49.975Z,5.95
2017-06-25T01:29:18.244Z,6.93
2017-06-25T01:31:46.512Z,5.53
2017-06-25T01:34:14.928Z,5.45
2017-06-25T01:36:43.964Z,6.12
2017-06-25T01:39:12.232Z,5.55
2017-06-25T01:41:40.532Z,6.72
2017-06-25T01:44:09.571Z,7.75
2017-06-25T01:46:37.835Z,6.15
2017-06-25T01:49:06.136Z,6.25
2017-06-25T01:51:35.176Z,8.07
2017-06-25T01:54:03.452Z,6.35
2017-06-25T01:56:31.757Z,5.82
2017-06-25T01:59:00.033Z,5.62
2017-06-25T02:01:28.292Z,5.68
2017-06-25T02:03:56.596Z,7.18
2017-06-25T02:06:24.864Z,6.20
2017-06-25T02:08:53.138Z,5.50
2017-06-25T02:11:21.465Z,6.28
2017-06-25T02:13:49.759Z,5.37
2017-06-25T02:16:18.027Z,5.10
2017-06-25T02:18:47.104Z,5.10
2017-06-25T02:21:16.154Z,7.35
2017-06-25T02:23:44.420Z,5.72
2017-06-25T02:26:12.733Z,6.07
2017-06-25T02:28:41.000Z,6.55
2017-06-25T02:31:09.316Z,5.68
2017-06-25T02:33:37.620Z,5.85
2017-06-25T02:36:05.892Z,6.30
2017-06-25T02:38:34.160Z,6.97
2017-06-25T02:41:02.584Z,5.20
2017-06-25T02:43:31.607Z,6.00
2017-06-25T02:45:59.880Z,5.60
2017-06-25T02:48:28.980Z,8.75
2017-06-25T02:50:57.256Z,7.97
2017-06-25T02:53:25.528Z,6.05
2017-06-25T02:55:54.730Z,5.60
2017-06-25T02:58:23.004Z,9.63
2017-06-25T03:00:51.287Z,6.00
2017-06-25T03:03:19.589Z,5.87
2017-06-25T03:05:48.644Z,5.72
2017-06-25T03:08:16.925Z,8.15
2017-06-25T03:10:45.232Z,6.72
2017-06-25T03:13:13.504Z,8.40
2017-06-25T03:15:41.784Z,6.55
2017-06-25T03:18:10.096Z,6.47
2017-06-25T03:20:38.399Z,6.75
2017-06-25T03:23:06.675Z,6.37
2017-06-25T03:25:34.992Z,11.25
2017-06-25T03:28:03.265Z,7.10
2017-06-25T03:30:31.540Z,7.25
2017-06-25T03:32:59.949Z,5.40
2017-06-25T03:35:28.992Z,7.20
2017-06-25T03:37:57.260Z,6.32
2017-06-25T03:40:25.564Z,8.40
2017-06-25T03:42:53.868Z,6.25
2017-06-25T03:45:23.763Z,6.30
2017-06-25T03:47:52.073Z,6.28
2017-06-25T03:50:21.119Z,5.30
2017-06-25T03:52:49.397Z,6.15
2017-06-25T03:55:17.696Z,6.37
2017-06-25T03:57:45.996Z,6.50
2017-06-25T04:00:14.264Z,5.55
2017-06-25T04:02:42.685Z,8.07
2017-06-25T04:05:10.961Z,6.40
2017-06-25T04:07:39.240Z,5.75
2017-06-25T04:10:07.541Z,6.00
2017-06-25T04:12:35.812Z,6.10
2017-06-25T04:15:04.848Z,6.00
2017-06-25T04:17:33.166Z,6.07
2017-06-25T04:20:01.443Z,6.25
2017-06-25T04:22:29.717Z,5.55
2017-06-25T04:24:58.020Z,5.70
2017-06-25T04:27:26.288Z,6.53
2017-06-25T04:29:55.335Z,6.90
2017-06-25T04:32:23.644Z,5.40
2017-06-25T04:34:52.685Z,7.12
2017-06-25T04:37:20.961Z,6.32
2017-06-25T04:39:49.297Z,5.80
2017-06-25T04:42:17.566Z,6.97
2017-06-25T04:44:45.833Z,5.60
2017-06-25T04:47:14.135Z,8.23
2017-06-25T04:49:42.420Z,5.78
2017-06-25T04:52:10.692Z,6.90
2017-06-25T04:54:38.991Z,7.05
2017-06-25T04:57:07.268Z,7.28
2017-06-25T04:59:35.525Z,5.30
2017-06-25T05:02:04.713Z,6.30
2017-06-25T05:04:33.749Z,5.45
2017-06-25T05:07:02.024Z,6.15
2017-06-25T05:09:30.336Z,6.05
2017-06-25T05:11:58.617Z,5.82
2017-06-25T05:14:26.884Z,6.25
2017-06-25T05:16:55.231Z,5.62
2017-06-25T05:19:23.508Z,6.55
2017-06-25T05:21:51.771Z,6.43
2017-06-25T05:24:20.077Z,7.07
2017-06-25T05:26:48.344Z,6.05
2017-06-25T05:29:17.382Z,6.87
2017-06-25T05:31:45.781Z,8.43
2017-06-25T05:34:14.812Z,6.20
2017-06-25T05:36:43.086Z,6.20
2017-06-25T05:39:11.392Z,5.25
2017-06-25T05:41:40.438Z,6.68
2017-06-25T05:44:08.715Z,6.78
2017-06-25T05:46:37.195Z,8.75
2017-06-25T05:49:06.237Z,6.37
2017-06-25T05:51:34.507Z,6.12
2017-06-25T05:54:02.812Z,6.40
2017-06-25T05:56:31.087Z,6.65
2017-06-25T05:58:59.360Z,7.62
2017-06-25T06:01:27.784Z,5.97
2017-06-25T06:03:56.828Z,6.22
2017-06-25T06:06:25.088Z,9.13
2017-06-25T06:08:53.388Z,7.80
2017-06-25T06:11:22.432Z,6.05
2017-06-25T06:13:50.705Z,7.87
2017-06-25T06:16:19.155Z,5.75
2017-06-25T06:18:47.440Z,6.05
2017-06-25T06:21:15.708Z,5.00
2017-06-25T06:23:44.788Z,7.55
2017-06-25T06:26:13.067Z,6.18
2017-06-25T06:28:42.095Z,5.30
2017-06-25T06:31:10.408Z,5.57
2017-06-25T06:33:39.443Z,5.82
2017-06-25T06:36:07.716Z,4.50
2017-06-25T06:38:36.044Z,3.40
2017-06-25T06:41:04.322Z,3.40
2017-06-25T06:43:32.596Z,3.00
2017-06-25T06:46:02.112Z,3.08
2017-06-25T06:48:30.384Z,2.83
2017-06-25T06:50:58.660Z,3.03
2017-06-25T06:53:27.098Z,3.22
2017-06-25T06:55:56.138Z,3.35
2017-06-25T06:58:24.412Z,3.28
2017-06-25T07:00:52.897Z,3.20
2017-06-25T07:03:21.943Z,3.67
2017-06-25T07:05:50.231Z,3.67
2017-06-25T07:08:18.548Z,2.47
2017-06-25T07:10:46.824Z,2.90
2017-06-25T07:13:15.092Z,5.90
2017-06-25T07:15:43.399Z,3.87
2017-06-25T07:18:12.435Z,4.43
2017-06-25T07:20:40.704Z,3.20
2017-06-25T07:23:09.188Z,3.00
2017-06-25T07:26:22.029Z,3.22
2017-06-25T07:28:53.853Z,2.83
2017-06-25T07:31:25.506Z,3.10
2017-06-25T07:33:54.949Z,3.20
2017-06-25T07:36:23.894Z,2.83
2017-06-25T07:38:52.831Z,3.25
2017-06-25T07:41:21.415Z,7.12
2017-06-25T07:43:49.864Z,3.37
2017-06-25T07:46:18.241Z,4.90
2017-06-25T07:48:46.672Z,4.22
2017-06-25T07:51:15.086Z,3.87
2017-06-25T07:53:43.557Z,4.68
2017-06-25T07:56:13.572Z,3.35
2017-06-25T07:58:42.376Z,3.55
2017-06-25T08:01:10.897Z,3.65
2017-06-25T08:03:39.489Z,4.12
2017-06-25T08:06:07.881Z,4.07
2017-06-25T08:08:37.109Z,3.33
2017-06-25T08:11:05.604Z,3.85
2017-06-25T08:13:36.266Z,3.15
2017-06-25T08:16:04.641Z,4.68
2017-06-25T08:18:32.998Z,3.22
2017-06-25T08:21:01.961Z,3.20
2017-06-25T08:23:30.402Z,6.78
2017-06-25T08:25:58.760Z,3.35
2017-06-25T08:28:28.094Z,3.25
2017-06-25T08:30:57.442Z,3.80
2017-06-25T08:33:26.589Z,3.35
2017-06-25T08:35:56.444Z,3.70
2017-06-25T08:38:25.496Z,6.45
2017-06-25T08:40:53.862Z,3.53
2017-06-25T08:43:22.235Z,3.40
2017-06-25T08:45:51.531Z,4.12
2017-06-25T08:48:20.791Z,3.53
2017-06-25T08:50:49.897Z,2.45
2017-06-25T08:53:21.066Z,4.30
2017-06-25T08:55:49.780Z,2.70
2017-06-25T08:58:18.294Z,2.83
2017-06-25T09:00:46.805Z,2.75
2017-06-25T09:03:16.103Z,6.75
2017-06-25T09:05:48.232Z,3.75
2017-06-25T09:08:16.628Z,2.40
2017-06-25T09:10:45.033Z,2.83
2017-06-25T09:13:13.442Z,2.80
2017-06-25T09:15:41.782Z,3.85
2017-06-25T09:18:13.603Z,3.08
2017-06-25T09:20:42.908Z,3.75
2017-06-25T09:23:12.807Z,2.93
2017-06-25T09:25:41.977Z,2.90
2017-06-25T09:28:10.714Z,2.15
2017-06-25T09:30:40.890Z,2.80
2017-06-25T09:33:12.120Z,2.17
2017-06-25T09:35:52.054Z,2.60
2017-06-25T09:38:23.110Z,3.05
2017-06-25T09:41:08.228Z,5.10
2017-06-25T09:43:36.754Z,2.45
2017-06-25T09:46:05.190Z,5.53
2017-06-25T09:48:36.124Z,3.00
2017-06-25T09:51:12.816Z,1.95
2017-06-25T09:53:47.490Z,2.05
2017-06-25T09:56:17.693Z,2.30
2017-06-25T09:58:47.487Z,4.25
2017-06-25T10:01:18.879Z,1.90
2017-06-25T10:03:49.830Z,2.20
2017-06-25T10:06:22.441Z,2.40
2017-06-25T10:08:53.931Z,2.47
2017-06-25T10:11:24.339Z,1.85
2017-06-25T10:13:55.789Z,2.10
2017-06-25T10:16:26.297Z,2.05
2017-06-25T10:18:55.177Z,3.45
2017-06-25T10:21:24.374Z,2.62
2017-06-25T10:23:54.297Z,2.92
2017-06-25T10:26:23.723Z,2.08
2017-06-25T10:28:54.674Z,2.12
2017-06-25T10:31:24.077Z,2.10
2017-06-25T10:33:54.571Z,3.05
2017-06-25T10:36:24.341Z,2.15
2017-06-25T10:38:59.915Z,2.00
2017-06-25T10:41:29.695Z,2.30
2017-06-25T10:43:58.126Z,2.95
2017-06-25T10:46:27.796Z,4.07
2017-06-25T10:49:00.869Z,2.37
2017-06-25T10:51:30.364Z,2.03
2017-06-25T10:53:58.775Z,2.20
2017-06-25T10:56:27.217Z,1.90
2017-06-25T10:58:58.669Z,3.05
2017-06-25T11:04:16.567Z,1.90
2017-06-25T11:06:47.115Z,1.90
2017-06-25T11:09:15.925Z,1.70
2017-06-25T11:11:45.278Z,2.45
2017-06-25T11:14:13.619Z,2.15
2017-06-25T11:16:47.174Z,2.22
2017-06-25T11:19:17.141Z,1.85
2017-06-25T11:21:47.974Z,2.20
2017-06-25T11:24:16.353Z,1.87
2017-06-25T11:26:45.394Z,1.65
2017-06-25T11:29:14.007Z,2.33
2017-06-25T11:31:42.381Z,3.25
2017-06-25T11:34:10.771Z,1.98
2017-06-25T11:36:42.033Z,2.50
2017-06-25T11:39:12.834Z,3.08
2017-06-25T11:41:43.497Z,2.15
2017-06-25T11:44:14.451Z,2.90
2017-06-25T11:46:46.951Z,2.28
2017-06-25T11:49:15.397Z,1.90
2017-06-25T11:51:43.816Z,1.98
2017-06-25T11:54:14.047Z,1.85
2017-06-25T11:56:43.797Z,2.10
2017-06-25T11:59:17.257Z,1.60
2017-06-25T12:01:45.625Z,2.20
2017-06-25T12:04:21.121Z,1.87
2017-06-25T12:06:49.521Z,1.92
2017-06-25T12:09:19.732Z,1.70
2017-06-25T12:11:51.931Z,1.90
2017-06-25T12:14:20.655Z,2.25
2017-06-25T12:16:49.225Z,1.85
2017-06-25T12:19:18.551Z,3.37
2017-06-25T12:21:47.008Z,2.20
2017-06-25T12:24:15.398Z,1.90
2017-06-25T12:26:43.846Z,2.37
2017-06-25T12:29:12.277Z,1.60
2017-06-25T12:31:44.823Z,2.10
2017-06-25T12:34:13.886Z,1.87
2017-06-25T12:36:42.267Z,1.92
2017-06-25T12:39:10.633Z,1.52
2017-06-25T12:41:39.256Z,1.83
2017-06-25T12:44:08.686Z,1.70
2017-06-25T12:46:39.271Z,2.00
2017-06-25T12:49:07.852Z,1.87
2017-06-25T12:51:36.245Z,1.90
2017-06-25T12:54:04.680Z,1.60
2017-06-25T12:56:33.306Z,1.95
2017-06-25T12:59:01.870Z,2.03
2017-06-25T13:01:31.222Z,2.05
2017-06-25T13:04:00.792Z,2.12
2017-06-25T13:06:30.158Z,1.65
2017-06-25T13:08:58.516Z,4.37
2017-06-25T13:11:27.186Z,2.20
2017-06-25T13:13:56.602Z,2.78
2017-06-25T13:16:25.211Z,1.90
2017-06-25T13:18:54.514Z,2.25
2017-06-25T13:21:23.354Z,1.90
2017-06-25T13:23:51.902Z,2.58
2017-06-25T13:26:20.438Z,2.00
2017-06-25T13:28:48.956Z,1.90
2017-06-25T13:31:17.925Z,2.40
2017-06-25T13:33:47.150Z,3.67
2017-06-25T13:36:16.761Z,4.03
2017-06-25T13:38:45.295Z,2.10
2017-06-25T13:41:13.974Z,4.80
2017-06-25T13:43:42.441Z,1.77
2017-06-25T13:46:10.876Z,3.28
2017-06-25T13:48:39.420Z,2.17
2017-06-25T13:51:11.201Z,3.35
2017-06-25T13:53:40.244Z,2.30
2017-06-25T13:56:08.708Z,1.80
2017-06-25T13:58:37.462Z,2.10
2017-06-25T14:01:07.403Z,2.15
2017-06-25T14:03:37.511Z,2.20
2017-06-25T14:06:06.018Z,2.90
2017-06-25T14:08:35.234Z,2.97
2017-06-25T14:11:05.837Z,3.17
2017-06-25T14:13:35.522Z,2.47
2017-06-25T14:16:03.977Z,2.30
2017-06-25T14:18:34.771Z,2.15
2017-06-25T14:21:03.336Z,2.17
2017-06-25T14:23:31.792Z,2.40
2017-06-25T14:26:00.418Z,2.87
2017-06-25T14:28:28.866Z,2.67
2017-06-25T14:30:57.310Z,2.42
2017-06-25T14:33:26.577Z,2.28
2017-06-25T14:35:55.038Z,2.92
2017-06-25T14:38:25.266Z,2.80
2017-06-25T14:41:02.511Z,2.37
2017-06-25T14:43:31.293Z,4.22
2017-06-25T14:45:59.707Z,1.98
2017-06-25T14:48:29.419Z,4.12
2017-06-25T14:50:58.684Z,2.20
2017-06-25T14:53:27.078Z,2.40
2017-06-25T14:55:57.396Z,3.00
2017-06-25T14:58:26.765Z,2.75
2017-06-25T15:00:55.118Z,3.75
2017-06-25T15:03:26.727Z,3.65
2017-06-25T15:06:01.749Z,2.47
2017-06-25T15:08:31.365Z,2.72
2017-06-25T15:10:59.731Z,4.62
2017-06-25T15:13:29.128Z,2.25
2017-06-25T15:15:58.114Z,3.28
2017-06-25T15:18:28.998Z,2.05
2017-06-25T15:23:33.029Z,1.85
2017-06-25T15:26:05.572Z,4.35
2017-06-25T15:28:42.351Z,2.87
2017-06-25T15:31:11.784Z,4.28
2017-06-25T15:33:40.429Z,2.30
2017-06-25T15:36:08.778Z,3.67
2017-06-25T15:38:40.899Z,2.28
2017-06-25T15:41:09.531Z,2.65
2017-06-25T15:43:38.673Z,1.77
2017-06-25T15:46:07.785Z,1.80
2017-06-25T15:48:37.084Z,3.75
2017-06-25T15:51:05.789Z,2.00
2017-06-25T15:53:34.570Z,1.95
2017-06-25T15:56:03.180Z,2.33
2017-06-25T15:58:32.530Z,1.90
2017-06-25T16:01:01.358Z,1.87
2017-06-25T16:03:29.959Z,1.98
2017-06-25T16:05:59.208Z,2.25
2017-06-25T16:08:27.794Z,2.40
2017-06-25T16:10:56.888Z,2.30
2017-06-25T16:13:26.378Z,2.58
2017-06-25T16:15:55.868Z,3.65
2017-06-25T16:18:27.859Z,2.58
2017-06-25T16:20:56.309Z,1.83
2017-06-25T16:23:24.696Z,2.62
2017-06-25T16:25:53.068Z,1.90
2017-06-25T16:28:22.524Z,2.15
2017-06-25T16:30:54.152Z,7.70
2017-06-25T16:33:25.121Z,2.53
2017-06-25T16:35:56.249Z,2.25
2017-06-25T16:38:24.769Z,1.90
2017-06-25T16:40:56.149Z,1.95
2017-06-25T16:43:26.638Z,2.58
2017-06-25T16:45:59.997Z,4.07
2017-06-25T16:48:28.595Z,2.50
2017-06-25T16:53:35.457Z,2.17
2017-06-25T16:56:06.188Z,2.35
2017-06-25T16:58:35.836Z,2.40
2017-06-25T17:01:04.302Z,2.60
2017-06-25T17:03:33.509Z,4.45
2017-06-25T17:06:02.743Z,2.70
2017-06-25T17:08:31.878Z,2.10
2017-06-25T17:11:03.965Z,3.28
2017-06-25T17:13:34.733Z,2.90
2017-06-25T17:16:03.444Z,2.65
2017-06-25T17:18:32.297Z,2.78
2017-06-25T17:21:01.977Z,2.17
2017-06-25T17:23:30.561Z,2.95
2017-06-25T17:25:59.042Z,2.90
2017-06-25T17:28:27.639Z,5.15
2017-06-25T17:30:56.095Z,4.37
2017-06-25T17:33:24.498Z,6.30
2017-06-25T17:35:54.866Z,3.25
2017-06-25T17:38:24.513Z,2.30
2017-06-25T17:40:53.835Z,3.17
2017-06-25T17:43:22.618Z,3.65
2017-06-25T17:45:51.050Z,3.28
2017-06-25T17:48:19.521Z,3.15
2017-06-25T17:50:48.535Z,4.35
2017-06-25T17:53:16.999Z,3.15
2017-06-25T17:55:45.381Z,2.78
2017-06-25T17:58:14.398Z,2.50
2017-06-25T18:00:42.826Z,2.85
2017-06-25T18:03:11.377Z,2.65
2017-06-25T18:05:40.549Z,2.80
2017-06-25T18:08:09.787Z,3.20
2017-06-25T18:10:38.215Z,2.42
2017-06-25T18:13:06.917Z,5.40
2017-06-25T18:15:36.195Z,2.35
2017-06-25T18:18:05.334Z,3.00
2017-06-25T18:20:34.058Z,2.50
2017-06-25T18:23:03.364Z,2.35
2017-06-25T18:25:31.742Z,2.28
2017-06-25T18:28:01.154Z,2.45
2017-06-25T18:30:29.591Z,1.90
2017-06-25T18:32:57.985Z,2.28
2017-06-25T18:35:26.539Z,2.30
2017-06-25T18:37:55.502Z,2.15
2017-06-25T18:40:23.934Z,2.17
2017-06-25T18:42:52.556Z,2.47
2017-06-25T18:45:21.104Z,2.70
2017-06-25T18:47:50.402Z,2.17
2017-06-25T18:50:21.092Z,2.08
2017-06-25T18:52:50.232Z,2.22
2017-06-25T18:55:18.853Z,2.40
2017-06-25T18:57:47.384Z,2.42
2017-06-25T19:00:15.846Z,3.45
2017-06-25T19:02:47.896Z,2.37
2017-06-25T19:05:17.266Z,1.90
2017-06-25T19:07:46.479Z,1.90
2017-06-25T19:10:16.067Z,7.28
2017-06-25T19:12:44.779Z,2.42
2017-06-25T19:15:15.674Z,2.05
2017-06-25T19:17:46.170Z,1.92
2017-06-25T19:20:16.189Z,2.15
2017-06-25T19:22:47.367Z,2.20
2017-06-25T19:25:19.730Z,2.35
2017-06-25T19:27:52.019Z,2.35
2017-06-25T19:30:21.821Z,2.10
2017-06-25T19:32:51.718Z,2.30
2017-06-25T19:35:21.479Z,2.90
2017-06-25T19:37:51.652Z,1.90
2017-06-25T19:40:21.970Z,2.00
2017-06-25T19:42:50.780Z,3.03
2017-06-25T19:45:19.509Z,2.47
2017-06-25T19:47:49.638Z,3.90
2017-06-25T19:50:19.467Z,3.08
2017-06-25T19:52:51.122Z,2.37
2017-06-25T19:55:20.509Z,2.50
2017-06-25T19:57:50.418Z,3.17
2017-06-25T20:00:19.963Z,2.60
2017-06-25T20:02:48.937Z,4.68
2017-06-25T20:05:21.085Z,2.97
2017-06-25T20:07:52.284Z,2.45
2017-06-25T20:10:21.673Z,4.07
2017-06-25T20:12:52.809Z,3.37
2017-06-25T20:15:21.498Z,3.15
2017-06-25T20:17:50.694Z,3.20
2017-06-25T20:20:19.126Z,2.70
2017-06-25T20:22:49.233Z,3.87
2017-06-25T20:25:19.490Z,2.70
2017-06-25T20:27:47.970Z,3.03
2017-06-25T20:30:16.667Z,3.30
2017-06-25T20:32:45.125Z,4.62
2017-06-25T20:35:13.761Z,2.92
2017-06-25T20:37:42.414Z,3.03
2017-06-25T20:40:10.950Z,3.50
2017-06-25T20:42:39.932Z,3.28
2017-06-25T20:45:10.587Z,3.37
2017-06-25T20:47:39.181Z,3.45
2017-06-25T20:50:07.961Z,2.95
2017-06-25T20:52:37.031Z,3.00
2017-06-25T20:55:06.993Z,3.00
2017-06-25T20:57:36.097Z,3.15
2017-06-25T21:00:04.717Z,3.05
2017-06-25T21:02:33.338Z,3.10
2017-06-25T21:05:01.686Z,3.42
2017-06-25T21:07:30.735Z,2.80
2017-06-25T21:10:00.773Z,2.95
2017-06-25T21:12:30.165Z,2.97
2017-06-25T21:15:00.925Z,3.50
2017-06-25T21:17:30.387Z,3.10
2017-06-25T21:19:59.022Z,3.20
2017-06-25T21:22:27.694Z,3.28
2017-06-25T21:24:56.927Z,2.85
2017-06-25T21:27:25.558Z,4.47
2017-06-25T21:29:54.131Z,3.30
2017-06-25T21:32:22.819Z,3.40
2017-06-25T21:34:51.993Z,3.00
2017-06-25T21:37:20.561Z,6.37
2017-06-25T21:39:49.064Z,3.30
2017-06-25T21:42:18.237Z,3.60
2017-06-25T21:44:46.736Z,3.03
2017-06-25T21:47:15.135Z,3.45
2017-06-25T21:49:43.602Z,5.25
2017-06-25T21:52:12.171Z,3.03
2017-06-25T21:54:40.560Z,3.17
2017-06-25T21:57:09.002Z,3.20
2017-06-25T21:59:37.812Z,2.83
2017-06-25T22:02:07.052Z,2.60
2017-06-25T22:04:36.113Z,3.12
2017-06-25T22:07:05.345Z,3.92
2017-06-25T22:09:34.662Z,3.25
2017-06-25T22:12:03.189Z,3.85
2017-06-25T22:14:32.533Z,2.83
2017-06-25T22:17:01.005Z,3.00
2017-06-25T22:19:29.493Z,2.95
2017-06-25T22:21:58.357Z,2.90
2017-06-25T22:24:26.806Z,3.30
2017-06-25T22:27:01.229Z,4.20
2017-06-25T22:29:31.908Z,3.30
2017-06-25T22:32:01.450Z,2.90
2017-06-25T22:34:32.224Z,3.78
2017-06-25T22:37:01.641Z,3.25
2017-06-25T22:39:30.066Z,3.75
2017-06-25T22:41:58.774Z,3.70
2017-06-25T22:44:27.321Z,3.83
2017-06-25T22:46:55.753Z,2.55
2017-06-25T22:49:24.957Z,4.53
2017-06-25T22:51:54.138Z,2.85
2017-06-25T22:54:24.347Z,2.55
2017-06-25T22:56:52.907Z,2.85
2017-06-25T22:59:21.244Z,4.40
2017-06-25T23:01:49.532Z,2.65
2017-06-25T23:04:17.832Z,3.50
2017-06-25T23:06:46.912Z,3.22
2017-06-25T23:09:15.965Z,2.95
2017-06-25T23:11:44.248Z,3.67
2017-06-25T23:14:13.325Z,2.90
2017-06-25T23:16:41.611Z,3.25
2017-06-25T23:19:09.888Z,2.50
2017-06-25T23:21:38.204Z,3.30
2017-06-25T23:24:07.248Z,3.30
2017-06-25T23:26:35.535Z,2.83
2017-06-25T23:29:03.955Z,3.70
2017-06-25T23:31:32.243Z,3.20
2017-06-25T23:34:00.635Z,3.03
2017-06-25T23:36:29.719Z,2.95
2017-06-25T23:38:58.766Z,4.25
2017-06-25T23:41:27.044Z,2.78
2017-06-25T23:43:55.377Z,4.60
2017-06-25T23:46:23.660Z,3.17
2017-06-25T23:48:51.953Z,2.53
2017-06-25T23:51:21.020Z,2.80
2017-06-25T23:53:49.310Z,3.10
2017-06-25T23:56:18.353Z,2.72
2017-06-25T23:58:46.680Z,2.55
